Terminal Aerodrome Forecast
Issued by NWS Cleveland, OH

Home | Current Version | Previous Version | Graphics & Text | Print | Product List | Glossary On
Versions: 1 2 3 4 5 6 7 8 9 10 11 12 13 14 15 16 17 18 19 20 21 22 23 24
839
FTUS41 KCLE 230520
TAFYNG
TAF
KYNG 230520Z 2306/2406 06008KT P6SM VCSH OVC070
     FM230800 04008KT 5SM BR VCSH OVC025
     FM231000 04010KT 3SM -RA BR OVC008
     FM231200 04010KT 2SM -RA BR OVC004
     FM240300 03006KT 4SM BR OVC010=

USA.gov is the U.S. government's official web portal to all federal, state and local government web resources and services.